Time;durP1;ratioP1;P1;durP2;ratioP2;P2;SDS_P1;SDS_P2;PMS_P1;PMS_P2;Temp;Humidity;BMP_temperature;BMP_pressure;BME280_temperature;BME280_humidity;BME280_pressure;Samples;Min_cycle;Max_cycle;Signal;HPM_P1;HPM_P2
2021/07/24 00:02:32;;;;;;;9.10;5.40;;;;;;;15.77;65.01;100214.25;10468554;28;20266;-73
2021/07/24 00:07:36;;;;;;;10.38;5.47;;;;;;;15.68;65.29;100213.38;10450224;28;20225;-74
2021/07/24 00:12:40;;;;;;;9.60;6.10;;;;;;;15.57;65.91;100208.25;10468323;28;20194;-73
2021/07/24 00:17:43;;;;;;;9.10;5.65;;;;;;;15.49;66.14;100206.34;10467859;28;20210;-73
2021/07/24 00:22:45;;;;;;;7.88;5.20;;;;;;;15.49;65.99;100203.63;10468240;28;20185;-74
2021/07/24 00:27:50;;;;;;;9.43;5.32;;;;;;;15.38;66.18;100193.06;10482169;22;20229;-73
2021/07/24 00:32:53;;;;;;;11.32;5.85;;;;;;;15.41;66.10;100195.47;10428538;28;20666;-76
2021/07/24 00:37:55;;;;;;;8.18;5.38;;;;;;;15.37;66.50;100194.09;10425771;28;20252;-75
2021/07/24 00:43:02;;;;;;;8.13;5.20;;;;;;;15.45;65.91;100192.28;10427660;28;20286;-75
2021/07/24 00:48:07;;;;;;;10.18;5.22;;;;;;;15.29;66.58;100188.59;10425628;28;20231;-75
2021/07/24 00:53:24;;;;;;;8.95;5.22;;;;;;;15.25;66.68;100182.69;10432188;28;20260;-75
2021/07/24 00:58:30;;;;;;;7.68;5.10;;;;;;;15.26;66.41;100185.19;10433569;28;20213;-75
2021/07/24 01:03:33;;;;;;;8.68;5.07;;;;;;;15.18;66.55;100184.31;10434319;28;20174;-75
2021/07/24 01:08:37;;;;;;;8.05;5.32;;;;;;;15.08;67.29;100168.16;10449036;28;20238;-75
2021/07/24 01:13:43;;;;;;;8.82;5.07;;;;;;;15.00;67.55;100173.53;10433870;28;20198;-76
2021/07/24 01:18:47;;;;;;;7.50;5.00;;;;;;;14.97;67.59;100163.03;10448406;28;20222;-74
2021/07/24 01:24:02;;;;;;;9.20;5.60;;;;;;;14.95;67.04;100165.91;10436022;28;20202;-75
2021/07/24 01:29:05;;;;;;;8.45;5.88;;;;;;;14.88;67.86;100156.72;10432048;28;20246;-75
2021/07/24 01:34:09;;;;;;;8.02;5.28;;;;;;;14.91;67.56;100153.69;10432627;28;20190;-75
2021/07/24 01:39:13;;;;;;;8.30;5.13;;;;;;;14.77;67.97;100152.41;10433116;28;20225;-75
2021/07/24 01:44:18;;;;;;;9.45;6.15;;;;;;;14.76;67.99;100152.56;10430902;28;20199;-75
2021/07/24 01:54:43;;;;;;;12.05;5.90;;;;;;;14.56;68.45;100132.97;10446319;28;20279;-76
2021/07/24 01:59:48;;;;;;;9.65;6.13;;;;;;;14.60;68.51;100123.56;10430597;28;20214;-75
2021/07/24 02:04:53;;;;;;;10.30;6.78;;;;;;;14.55;68.79;100117.78;10430167;28;20225;-76
2021/07/24 02:09:59;;;;;;;10.52;6.88;;;;;;;14.56;69.05;100116.75;10431964;28;20667;-75
2021/07/24 02:15:25;;;;;;;10.07;6.43;;;;;;;14.52;68.94;100104.56;10446759;28;20289;-75
2021/07/24 02:20:29;;;;;;;9.95;6.63;;;;;;;14.47;69.24;100107.72;10446712;28;20292;-75
2021/07/24 02:25:33;;;;;;;11.32;7.28;;;;;;;14.32;69.84;100122.78;10430011;28;20206;-75
2021/07/24 02:30:38;;;;;;;11.15;7.22;;;;;;;14.28;69.80;100113.28;10430083;28;20234;-75
2021/07/24 02:35:41;;;;;;;8.50;5.97;;;;;;;14.20;69.75;100099.69;10429453;28;20209;-75
2021/07/24 02:40:54;;;;;;;10.00;6.13;;;;;;;14.13;69.81;100094.91;10429821;28;20268;-75
2021/07/24 02:45:57;;;;;;;8.43;6.03;;;;;;;14.10;70.22;100114.13;10430634;28;20209;-75
2021/07/24 02:51:03;;;;;;;8.10;5.68;;;;;;;14.07;70.83;100114.44;10429298;28;20226;-75
2021/07/24 02:56:08;;;;;;;9.23;6.22;;;;;;;14.07;70.47;100116.28;10429960;28;20273;-76
2021/07/24 03:01:14;;;;;;;10.30;6.00;;;;;;;13.99;70.39;100118.91;10429214;28;20630;-75
2021/07/24 03:06:17;;;;;;;9.32;6.15;;;;;;;13.74;71.33;100115.97;10429623;28;20220;-75
2021/07/24 03:11:21;;;;;;;8.60;5.55;;;;;;;13.72;71.50;100112.56;10430121;28;20238;-75
2021/07/24 03:16:24;;;;;;;9.65;5.28;;;;;;;13.79;70.99;100110.94;10429651;28;20599;-75
2021/07/24 03:21:27;;;;;;;9.50;5.55;;;;;;;13.87;71.02;100100.22;10433247;28;20296;-75
2021/07/24 03:26:32;;;;;;;8.80;5.40;;;;;;;13.97;70.34;100102.03;10429247;28;20193;-75
2021/07/24 03:31:35;;;;;;;8.68;5.32;;;;;;;13.98;70.35;100101.84;10429241;28;20214;-75
2021/07/24 03:36:38;;;;;;;9.10;5.63;;;;;;;13.91;70.44;100098.94;10429021;28;20198;-76
2021/07/24 03:41:42;;;;;;;10.00;5.80;;;;;;;13.88;70.39;100098.41;10444338;28;20306;-75
2021/07/24 03:46:45;;;;;;;12.48;5.40;;;;;;;13.86;70.23;100095.00;10428123;28;20293;-76
2021/07/24 03:51:48;;;;;;;8.57;5.60;;;;;;;13.87;70.45;100097.53;10430184;28;20236;-75
2021/07/24 03:56:52;;;;;;;7.75;4.85;;;;;;;13.94;70.37;100097.78;10428652;28;20293;-75
2021/07/24 04:01:57;;;;;;;10.65;6.28;;;;;;;13.93;70.26;100096.06;10430401;28;20212;-76
2021/07/24 04:07:00;;;;;;;8.35;5.55;;;;;;;13.96;70.00;100101.19;10429691;28;20178;-75
2021/07/24 04:12:06;;;;;;;8.07;5.30;;;;;;;14.01;70.17;100103.41;10429796;28;20218;-76
2021/07/24 04:17:09;;;;;;;8.65;5.97;;;;;;;14.05;70.56;100091.31;10429572;28;20202;-76
2021/07/24 04:22:12;;;;;;;10.52;6.25;;;;;;;14.13;70.20;100086.81;10429937;28;20186;-75
2021/07/24 04:27:16;;;;;;;11.35;6.30;;;;;;;14.33;69.95;100083.94;10431929;28;20571;-76
2021/07/24 04:32:20;;;;;;;12.93;6.45;;;;;;;14.37;69.67;100080.78;10436637;28;20706;-76
2021/07/24 04:37:23;;;;;;;11.20;6.20;;;;;;;14.44;69.11;100091.00;10436136;28;20204;-76
2021/07/24 04:42:27;;;;;;;8.13;5.63;;;;;;;14.52;69.14;100086.50;10436522;28;20182;-75
2021/07/24 04:47:30;;;;;;;10.18;5.63;;;;;;;14.58;69.48;100079.59;10434558;28;20214;-75
2021/07/24 04:52:36;;;;;;;11.38;7.10;;;;;;;14.74;69.27;100071.63;10436440;28;20560;-76
2021/07/24 04:57:41;;;;;;;11.13;6.80;;;;;;;15.01;68.76;100073.31;10436281;28;20210;-75
2021/07/24 05:02:45;;;;;;;10.80;6.38;;;;;;;15.11;67.97;100089.44;10435957;28;20197;-75
2021/07/24 05:07:49;;;;;;;11.45;6.47;;;;;;;14.55;68.86;100090.75;10435404;28;20240;-75
2021/07/24 05:12:53;;;;;;;10.90;6.20;;;;;;;14.37;69.78;100090.72;10454224;28;20202;-76
2021/07/24 05:17:56;;;;;;;9.63;6.47;;;;;;;14.72;69.61;100081.72;10442068;28;20210;-75
2021/07/24 05:22:59;;;;;;;15.25;6.57;;;;;;;14.75;69.57;100077.88;10433678;28;20209;-75
2021/07/24 05:28:04;;;;;;;9.45;5.90;;;;;;;14.85;69.80;100066.97;10432727;28;20356;-76
2021/07/24 05:33:07;;;;;;;10.10;6.07;;;;;;;15.24;69.72;100056.50;10434691;28;20686;-75
2021/07/24 05:38:09;;;;;;;13.15;6.50;;;;;;;16.04;68.19;100034.38;10433786;28;20289;-75
2021/07/24 05:43:14;;;;;;;11.20;6.35;;;;;;;16.56;65.20;100025.91;10433619;28;20206;-75
2021/07/24 05:48:17;;;;;;;11.77;6.60;;;;;;;16.61;64.15;100020.81;10433823;28;20293;-75
2021/07/24 05:53:20;;;;;;;11.70;6.88;;;;;;;16.56;63.76;100024.06;10448143;28;20251;-75
2021/07/24 05:58:24;;;;;;;10.07;6.55;;;;;;;16.52;64.30;100011.88;10432530;28;20206;-75
2021/07/24 06:03:27;;;;;;;9.65;6.25;;;;;;;16.44;64.77;100003.75;10432805;28;20194;-75
2021/07/24 06:08:30;;;;;;;11.88;6.43;;;;;;;16.39;64.73;99991.72;10431111;28;20218;-75
2021/07/24 06:13:34;;;;;;;10.82;6.88;;;;;;;16.40;65.14;99998.84;10431404;28;20196;-75
2021/07/24 06:18:37;;;;;;;9.73;6.38;;;;;;;16.59;65.00;99990.31;10430746;28;20305;-75
2021/07/24 06:23:40;;;;;;;9.77;6.85;;;;;;;16.86;65.34;99980.91;10430833;28;20198;-75
2021/07/24 06:28:44;;;;;;;9.80;6.22;;;;;;;17.08;63.52;99981.19;10431108;28;20718;-75
2021/07/24 06:33:47;;;;;;;10.13;6.57;;;;;;;17.23;63.17;99979.44;10430832;28;20198;-75
2021/07/24 06:38:50;;;;;;;10.43;7.18;;;;;;;17.61;63.09;99980.41;10429029;28;20214;-75
2021/07/24 06:43:54;;;;;;;10.38;6.55;;;;;;;17.99;62.55;99968.75;10430487;28;20194;-75
2021/07/24 06:48:57;;;;;;;11.77;6.05;;;;;;;18.31;61.18;99965.75;10430333;28;20231;-75
2021/07/24 06:54:00;;;;;;;11.68;6.38;;;;;;;18.54;60.56;99948.50;10431618;28;20225;-75
2021/07/24 06:59:04;;;;;;;9.38;5.90;;;;;;;18.81;60.33;99944.31;10447347;28;20774;-75
2021/07/24 07:04:09;;;;;;;7.47;5.65;;;;;;;19.18;59.73;99950.66;10431660;28;20205;-76
2021/07/24 07:09:12;;;;;;;9.68;6.15;;;;;;;19.64;58.43;99942.19;10429601;28;20205;-76
2021/07/24 07:14:16;;;;;;;11.02;6.72;;;;;;;19.87;56.10;99950.16;10431137;28;20190;-75
2021/07/24 07:19:19;;;;;;;9.77;5.90;;;;;;;19.97;56.53;99953.41;10429623;28;20216;-76
2021/07/24 07:24:22;;;;;;;8.82;6.15;;;;;;;20.16;55.26;99946.44;10429675;28;20186;-75
2021/07/24 07:29:26;;;;;;;10.80;6.97;;;;;;;20.40;52.47;99953.34;10430595;28;20350;-76
2021/07/24 07:34:29;;;;;;;8.65;6.43;;;;;;;20.87;52.78;99949.03;10428430;28;20644;-76
2021/07/24 07:39:35;;;;;;;11.18;7.53;;;;;;;20.71;51.26;99952.91;10429721;28;20738;-75
2021/07/24 07:44:40;;;;;;;10.18;7.13;;;;;;;20.99;51.06;99960.19;10429956;28;20252;-75
2021/07/24 07:49:43;;;;;;;9.40;7.05;;;;;;;21.46;50.48;99953.03;10428861;28;20218;-75
2021/07/24 07:54:45;;;;;;;10.98;6.93;;;;;;;21.84;49.50;99958.81;10430073;28;20198;-74
2021/07/24 07:59:50;;;;;;;11.43;6.32;;;;;;;21.79;49.70;99939.47;10430041;28;20242;-75
2021/07/24 08:04:53;;;;;;;9.07;6.57;;;;;;;22.12;48.64;99933.16;10436659;28;20189;-75
2021/07/24 08:09:57;;;;;;;9.52;6.38;;;;;;;22.63;49.39;99921.56;10435178;28;20592;-75
2021/07/24 08:15:01;;;;;;;9.75;6.82;;;;;;;23.03;47.74;99918.66;10436418;28;20364;-75
2021/07/24 08:20:06;;;;;;;10.73;7.07;;;;;;;22.91;47.19;99913.03;10433970;28;20218;-75
2021/07/24 08:25:10;;;;;;;10.23;6.90;;;;;;;23.58;47.61;99902.56;10435316;28;20198;-75
2021/07/24 08:30:15;;;;;;;10.90;6.93;;;;;;;23.84;46.66;99908.97;10435614;28;20244;-75
2021/07/24 08:35:18;;;;;;;10.80;7.63;;;;;;;24.38;45.30;99887.34;10438011;28;20534;-74
2021/07/24 08:40:21;;;;;;;11.18;7.68;;;;;;;24.26;45.40;99873.53;10433167;28;20218;-75
2021/07/24 08:45:26;;;;;;;11.05;7.45;;;;;;;24.39;44.95;99876.16;10434729;28;20610;-74
2021/07/24 08:50:29;;;;;;;12.95;7.72;;;;;;;25.03;43.68;99862.13;10434197;28;20228;-75
2021/07/24 08:55:33;;;;;;;10.10;7.50;;;;;;;25.02;43.21;99852.19;10434275;28;20200;-74
2021/07/24 09:00:37;;;;;;;9.98;7.82;;;;;;;25.15;42.79;99841.88;10433076;28;20221;-74
2021/07/24 09:05:42;;;;;;;10.50;7.63;;;;;;;25.30;43.59;99835.94;10436732;28;20951;-74
2021/07/24 09:10:47;;;;;;;9.93;6.85;;;;;;;25.50;43.79;99838.34;10435068;28;20744;-75
2021/07/24 09:15:53;;;;;;;9.23;7.55;;;;;;;25.96;43.35;99835.94;10434448;28;20252;-75
2021/07/24 09:20:56;;;;;;;10.25;8.18;;;;;;;26.39;42.08;99823.72;10434101;28;20581;-75
2021/07/24 09:26:00;;;;;;;12.27;7.40;;;;;;;25.99;42.24;99816.19;10433739;28;20194;-75
2021/07/24 09:31:22;;;;;;;13.90;8.13;;;;;;;26.55;42.32;99820.22;10432606;28;20217;-76
2021/07/24 09:36:35;;;;;;;12.73;8.30;;;;;;;27.10;41.12;99816.09;10431202;28;20193;-75
2021/07/24 09:41:39;;;;;;;11.23;8.15;;;;;;;27.35;40.77;99812.94;10433490;28;20293;-76
2021/07/24 09:46:54;;;;;;;16.48;8.95;;;;;;;27.65;40.31;99800.78;10433585;28;20186;-74
2021/07/24 09:52:10;;;;;;;11.30;8.70;;;;;;;27.86;39.60;99804.69;10432229;28;20223;-75
2021/07/24 09:57:33;;;;;;;11.55;8.35;;;;;;;28.22;38.06;99795.00;10431853;28;20210;-76
2021/07/24 10:02:37;;;;;;;12.57;9.45;;;;;;;28.21;38.16;99790.59;10431799;28;20182;-75
2021/07/24 10:07:42;;;;;;;12.48;9.25;;;;;;;28.39;38.38;99792.22;10433474;28;20757;-75
2021/07/24 10:12:45;;;;;;;12.95;9.02;;;;;;;28.80;37.44;99771.47;10432860;28;20218;-76
2021/07/24 10:17:49;;;;;;;12.70;9.60;;;;;;;28.97;37.56;99776.88;10429768;28;20312;-76
2021/07/24 10:22:52;;;;;;;12.65;8.85;;;;;;;28.99;37.56;99766.41;10430272;28;20182;-75
2021/07/24 10:27:57;;;;;;;11.63;8.82;;;;;;;29.27;37.25;99757.00;10430382;28;20225;-75
2021/07/24 10:33:01;;;;;;;11.25;9.00;;;;;;;29.48;37.00;99763.53;10430818;28;20214;-75
2021/07/24 10:38:30;;;;;;;11.95;9.52;;;;;;;29.80;35.95;99759.91;10432434;28;20678;-76
2021/07/24 10:43:58;;;;;;;11.95;9.15;;;;;;;29.87;36.30;99752.22;10430388;28;20201;-75
2021/07/24 10:49:02;;;;;;;12.52;9.07;;;;;;;30.29;35.72;99754.13;10430205;28;20213;-75
2021/07/24 10:54:07;;;;;;;13.75;8.70;;;;;;;30.87;34.69;99740.19;10431900;28;20210;-76
2021/07/24 10:59:21;;;;;;;10.75;9.00;;;;;;;31.19;33.96;99742.75;10431195;28;20214;-76
2021/07/24 11:04:41;;;;;;;11.68;8.75;;;;;;;31.34;33.85;99733.56;10429961;28;20243;-76
2021/07/24 11:09:45;;;;;;;13.68;9.10;;;;;;;31.33;33.84;99720.81;10429981;28;20202;-76
2021/07/24 11:14:50;;;;;;;12.00;9.13;;;;;;;31.14;34.89;99721.34;10429356;28;20190;-76
2021/07/24 11:20:33;;;;;;;12.82;9.65;;;;;;;31.24;34.70;99711.38;10429286;28;20213;-76
2021/07/24 11:25:39;;;;;;;11.27;9.38;;;;;;;31.28;34.34;99702.22;10428949;28;20186;-76
2021/07/24 11:30:42;;;;;;;12.40;9.50;;;;;;;31.62;33.26;99693.28;10429430;28;20589;-76
2021/07/24 11:35:51;;;;;;;13.90;10.38;;;;;;;31.25;32.62;99708.34;10428222;28;20228;-75
2021/07/24 11:41:03;;;;;;;12.95;9.90;;;;;;;31.70;32.63;99705.78;10428940;28;20205;-76
2021/07/24 11:46:09;;;;;;;13.43;10.60;;;;;;;31.76;32.12;99704.66;10431258;28;20194;-75
2021/07/24 11:51:14;;;;;;;17.20;9.35;;;;;;;31.88;32.85;99704.38;10432677;28;20726;-76
2021/07/24 11:56:21;;;;;;;11.15;9.32;;;;;;;31.70;33.02;99703.03;10432848;28;20194;-75
2021/07/24 12:01:25;;;;;;;12.57;9.77;;;;;;;31.32;33.39;99705.28;10433208;28;20222;-75
2021/07/24 12:06:29;;;;;;;12.57;10.00;;;;;;;30.71;34.37;99700.50;10431177;28;20229;-75
2021/07/24 12:11:34;;;;;;;13.32;10.20;;;;;;;31.64;33.89;99690.25;10434261;28;20234;-75
2021/07/24 12:16:39;;;;;;;14.27;10.10;;;;;;;31.93;33.10;99669.09;10433275;28;20248;-75
2021/07/24 12:21:43;;;;;;;12.90;9.60;;;;;;;32.07;33.12;99660.16;10429101;28;20202;-75
2021/07/24 12:26:48;;;;;;;14.18;10.40;;;;;;;32.87;32.61;99659.97;10431948;28;20182;-75
2021/07/24 12:31:53;;;;;;;11.48;10.00;;;;;;;32.48;32.99;99659.94;10445693;22;20720;-73
2021/07/24 12:36:58;;;;;;;12.07;9.88;;;;;;;32.23;33.07;99662.59;10426154;28;20206;-72
2021/07/24 12:42:04;;;;;;;12.52;9.20;;;;;;;32.31;32.54;99643.63;10427801;28;20210;-73
2021/07/24 12:47:12;;;;;;;13.05;10.45;;;;;;;32.35;32.80;99642.78;10428339;28;20193;-72
2021/07/24 12:52:29;;;;;;;15.32;10.18;;;;;;;33.00;32.05;99630.66;10434251;28;20214;-72
2021/07/24 12:57:34;;;;;;;12.40;10.18;;;;;;;31.94;33.44;99631.03;10433360;28;20200;-72
2021/07/24 13:02:39;;;;;;;15.68;10.65;;;;;;;30.70;34.99;99646.19;10433863;28;20655;-72
2021/07/24 13:07:43;;;;;;;12.45;9.88;;;;;;;30.28;35.89;99644.44;10432941;28;20585;-72
2021/07/24 13:12:47;;;;;;;13.27;9.48;;;;;;;29.58;36.64;99654.88;10433039;28;20221;-72
2021/07/24 13:17:50;;;;;;;11.77;8.95;;;;;;;29.45;36.37;99652.59;10432806;28;20220;-72
2021/07/24 13:22:53;;;;;;;13.13;10.00;;;;;;;28.63;38.25;99651.91;10433186;28;20182;-71
2021/07/24 13:28:15;;;;;;;10.93;9.18;;;;;;;28.48;38.04;99647.88;10432629;28;20700;-72
2021/07/24 13:33:19;;;;;;;13.70;10.18;;;;;;;28.45;38.60;99645.63;10432833;28;20224;-72
2021/07/24 13:38:25;;;;;;;12.77;10.18;;;;;;;28.56;38.64;99656.84;10432443;28;20213;-74
2021/07/24 13:43:29;;;;;;;16.50;11.05;;;;;;;28.80;38.91;99643.50;10432162;28;20194;-74
2021/07/24 13:48:33;;;;;;;12.77;10.45;;;;;;;28.69;39.24;99650.88;10432265;28;20217;-74
2021/07/24 13:53:36;;;;;;;14.05;10.27;;;;;;;28.62;39.20;99653.84;10431884;28;20609;-74
2021/07/24 13:58:44;;;;;;;14.00;10.80;;;;;;;29.20;38.70;99645.78;10431361;28;20212;-73
2021/07/24 14:03:47;;;;;;;13.15;10.25;;;;;;;29.50;38.27;99638.78;10432033;28;20193;-74
2021/07/24 14:08:50;;;;;;;12.35;10.52;;;;;;;29.37;38.42;99635.41;10431321;28;20221;-74
2021/07/24 14:13:55;;;;;;;14.60;11.27;;;;;;;28.95;39.13;99643.63;10431477;28;20210;-73
2021/07/24 14:18:58;;;;;;;12.82;10.38;;;;;;;28.52;40.26;99623.34;10431120;28;20276;-73
2021/07/24 14:24:01;;;;;;;14.07;10.52;;;;;;;28.53;40.35;99621.44;10431068;28;20201;-73
2021/07/24 14:29:05;;;;;;;13.32;10.30;;;;;;;28.16;40.76;99620.19;10430925;28;20229;-72
2021/07/24 14:34:18;;;;;;;13.35;10.25;;;;;;;28.08;41.45;99628.94;10430510;28;20789;-73
2021/07/24 14:39:21;;;;;;;14.15;11.05;;;;;;;28.13;41.47;99614.38;10430694;28;20712;-74
2021/07/24 14:44:25;;;;;;;14.35;11.30;;;;;;;28.11;41.68;99622.06;10432417;28;20193;-74
2021/07/24 14:49:28;;;;;;;15.85;10.82;;;;;;;27.74;42.09;99617.19;10430384;28;20218;-74
2021/07/24 14:54:33;;;;;;;15.70;10.13;;;;;;;27.34;42.91;99629.28;10429555;28;20210;-73
2021/07/24 14:59:37;;;;;;;14.13;10.35;;;;;;;27.11;43.54;99622.06;10430281;28;20213;-74
2021/07/24 15:04:40;;;;;;;13.63;10.52;;;;;;;27.16;43.69;99619.41;10429405;28;20191;-74
2021/07/24 15:09:47;;;;;;;14.43;11.27;;;;;;;27.13;43.74;99612.47;10429208;28;20214;-74
2021/07/24 15:14:51;;;;;;;13.27;10.55;;;;;;;26.98;43.52;99603.94;10429137;28;20297;-74
2021/07/24 15:19:56;;;;;;;14.70;10.80;;;;;;;27.16;43.49;99589.06;10429499;28;20217;-74
2021/07/24 15:24:59;;;;;;;16.60;10.82;;;;;;;27.26;43.53;99582.84;10428655;28;20191;-74
2021/07/24 15:30:05;;;;;;;15.77;11.50;;;;;;;27.17;44.07;99585.22;10428415;28;20221;-73
2021/07/24 15:35:08;;;;;;;15.95;10.30;;;;;;;27.05;45.33;99590.00;10428525;28;20285;-74
2021/07/24 15:40:12;;;;;;;14.90;10.65;;;;;;;26.89;45.81;99583.44;10410517;28;20244;-74
2021/07/24 15:45:17;;;;;;;17.92;11.27;;;;;;;26.15;47.08;99599.97;10427971;28;20193;-75
2021/07/24 15:50:19;;;;;;;15.20;11.45;;;;;;;25.77;47.89;99585.75;10428043;28;20209;-74
2021/07/24 15:55:22;;;;;;;13.00;10.18;;;;;;;25.53;48.58;99582.19;10427611;28;20225;-74
2021/07/24 16:00:27;;;;;;;14.57;11.35;;;;;;;25.26;49.39;99578.28;10427663;28;20217;-73
2021/07/24 16:05:30;;;;;;;19.30;11.98;;;;;;;24.91;50.95;99582.72;10427325;28;20198;-72
2021/07/24 16:10:32;;;;;;;14.70;12.00;;;;;;;24.71;51.50;99579.44;10428306;28;20686;-73
2021/07/24 16:15:39;;;;;;;13.98;10.70;;;;;;;24.68;51.74;99583.53;10427434;28;20210;-73
2021/07/24 16:20:42;;;;;;;15.98;11.07;;;;;;;24.61;52.62;99584.72;10428503;28;20210;-72
2021/07/24 16:25:45;;;;;;;17.58;12.48;;;;;;;23.64;57.92;99591.06;10434587;28;20198;-74
2021/07/24 16:30:50;;;;;;;19.50;13.27;;;;;;;22.09;65.05;99613.63;10434513;28;20217;-72
2021/07/24 16:35:53;;;;;;;21.02;14.60;;;;;;;21.25;69.56;99596.25;10434351;28;20213;-73
2021/07/24 16:40:55;;;;;;;22.83;14.63;;;;;;;21.12;70.70;99602.59;10416684;28;20721;-73
2021/07/24 16:46:00;;;;;;;22.80;14.70;;;;;;;20.77;71.70;99597.34;10433872;28;20197;-72
2021/07/24 16:51:03;;;;;;;23.35;15.95;;;;;;;20.84;72.91;99593.75;10433769;28;20708;-72
2021/07/24 16:56:07;;;;;;;23.00;16.05;;;;;;;21.02;70.38;99602.97;10434355;28;20220;-72
2021/07/24 17:01:13;;;;;;;23.20;14.52;;;;;;;20.76;69.02;99595.66;10433941;28;20206;-72
2021/07/24 17:06:20;;;;;;;21.80;16.05;;;;;;;20.49;71.35;99596.69;10433583;28;20186;-73
2021/07/24 17:11:23;;;;;;;24.30;16.15;;;;;;;20.57;71.77;99601.97;10433231;28;20586;-72
2021/07/24 17:16:27;;;;;;;23.60;16.85;;;;;;;20.33;71.17;99611.56;10433223;28;20190;-72
2021/07/24 17:21:30;;;;;;;25.75;16.20;;;;;;;20.04;73.37;99605.38;10433600;28;20210;-72
2021/07/24 17:26:33;;;;;;;24.95;17.45;;;;;;;20.11;73.68;99599.94;10432828;28;20194;-72
2021/07/24 17:31:38;;;;;;;27.80;18.63;;;;;;;19.71;76.00;99597.06;10432833;28;20252;-72
2021/07/24 17:36:41;;;;;;;26.70;18.80;;;;;;;19.21;76.75;99585.50;10431896;28;20194;-72
2021/07/24 17:41:44;;;;;;;29.65;19.92;;;;;;;19.08;79.04;99588.13;10432490;28;20222;-73
2021/07/24 17:46:48;;;;;;;30.65;21.23;;;;;;;18.94;78.84;99585.31;10432681;28;20201;-72
2021/07/24 17:51:57;;;;;;;31.33;20.77;;;;;;;19.08;79.29;99569.91;10432003;28;20678;-72
2021/07/24 17:57:00;;;;;;;28.50;19.90;;;;;;;19.13;78.07;99561.97;10432035;28;20189;-74
2021/07/24 18:02:04;;;;;;;28.23;19.25;;;;;;;19.68;78.86;99573.81;10432151;28;20214;-73
2021/07/24 18:07:07;;;;;;;30.55;20.88;;;;;;;19.71;76.94;99569.00;10431465;28;20198;-72
2021/07/24 18:12:11;;;;;;;30.98;21.88;;;;;;;19.70;76.62;99561.88;10432900;28;20206;-72
2021/07/24 18:17:15;;;;;;;32.05;21.48;;;;;;;19.47;77.47;99579.31;10434094;28;20197;-71
2021/07/24 18:22:18;;;;;;;33.53;21.70;;;;;;;19.10;77.41;99567.81;10431747;28;20210;-73
2021/07/24 18:27:21;;;;;;;35.30;22.65;;;;;;;19.33;77.10;99574.88;10413661;28;20202;-74
2021/07/24 18:32:25;;;;;;;34.95;21.90;;;;;;;19.26;77.39;99595.78;10481445;22;20231;-77
2021/07/24 18:37:28;;;;;;;34.45;20.90;;;;;;;19.38;77.25;99599.59;10476651;28;20197;-76
2021/07/24 18:42:32;;;;;;;36.13;23.02;;;;;;;19.35;77.86;99605.47;10395816;28;20241;-77
2021/07/24 18:47:36;;;;;;;34.88;24.63;;;;;;;18.69;80.17;99592.19;10335437;28;20608;-77
2021/07/24 18:52:39;;;;;;;35.92;24.48;;;;;;;18.70;81.40;99583.81;10349511;28;20238;-76
2021/07/24 18:57:42;;;;;;;41.15;27.25;;;;;;;18.74;82.14;99573.41;10338281;28;20230;-77
2021/07/24 19:02:46;;;;;;;45.58;27.20;;;;;;;18.51;81.81;99573.63;10335470;28;20239;-77
2021/07/24 19:07:49;;;;;;;42.85;27.85;;;;;;;18.57;81.65;99581.84;10350234;28;20508;-77
2021/07/24 19:12:56;;;;;;;47.05;27.77;;;;;;;18.45;81.56;99593.44;10353693;28;20236;-78
2021/07/24 19:18:01;;;;;;;40.45;26.20;;;;;;;18.33;81.86;99595.84;10358077;28;20690;-78
2021/07/24 19:23:04;;;;;;;50.13;31.25;;;;;;;18.38;82.26;99606.16;10357333;28;20241;-77
2021/07/24 19:28:07;;;;;;;47.75;30.45;;;;;;;18.22;83.21;99623.53;10380945;28;20311;-77
2021/07/24 19:33:11;;;;;;;52.55;31.40;;;;;;;18.20;83.89;99639.19;10407789;28;20229;-78
2021/07/24 19:38:14;;;;;;;51.40;31.52;;;;;;;18.07;84.73;99638.03;10402418;28;20226;-77
2021/07/24 19:43:17;;;;;;;51.10;31.60;;;;;;;17.89;85.88;99643.00;10390719;28;20229;-76
2021/07/24 19:48:21;;;;;;;56.72;34.47;;;;;;;18.01;86.51;99636.06;10388747;28;20308;-74
2021/07/24 19:53:24;;;;;;;57.50;34.85;;;;;;;18.26;87.01;99636.53;10392333;28;20856;-76
2021/07/24 19:58:27;;;;;;;61.53;36.83;;;;;;;18.54;87.62;99631.19;10389146;28;20252;-75
2021/07/24 20:03:34;;;;;;;57.40;35.53;;;;;;;18.52;86.32;99644.13;10389290;28;20240;-76
2021/07/24 20:08:38;;;;;;;60.33;36.97;;;;;;;18.31;86.35;99635.97;10387812;28;20256;-76
2021/07/24 20:13:41;;;;;;;61.17;36.90;;;;;;;18.51;87.78;99637.03;10391552;28;20233;-75
2021/07/24 20:18:45;;;;;;;65.03;38.78;;;;;;;18.51;87.47;99639.75;10373984;28;20302;-75
2021/07/24 20:23:51;;;;;;;55.65;35.03;;;;;;;18.54;87.11;99631.19;10357440;28;20234;-76
2021/07/24 20:28:54;;;;;;;52.97;34.13;;;;;;;18.50;87.68;99627.16;10348953;28;20234;-76
2021/07/24 20:33:58;;;;;;;56.53;34.58;;;;;;;18.68;87.34;99624.00;10348886;28;20603;-76
2021/07/24 20:39:02;;;;;;;57.38;33.85;;;;;;;18.75;87.55;99633.03;10354387;28;20231;-77
2021/07/24 20:44:05;;;;;;;57.63;31.98;;;;;;;18.81;87.74;99636.88;10377492;28;20248;-76
2021/07/24 20:49:09;;;;;;;55.33;33.67;;;;;;;18.72;87.36;99632.59;10387204;28;20307;-76
2021/07/24 20:54:12;;;;;;;60.15;36.15;;;;;;;18.58;87.53;99628.91;10388796;28;20236;-75
2021/07/24 20:59:15;;;;;;;61.33;38.10;;;;;;;18.61;87.86;99630.41;10388239;28;20245;-75
2021/07/24 21:04:31;;;;;;;61.13;35.25;;;;;;;18.53;86.55;99647.69;10389709;28;20240;-76
2021/07/24 21:09:34;;;;;;;52.22;32.83;;;;;;;18.30;86.98;99665.03;10396357;28;20248;-75
2021/07/24 21:14:37;;;;;;;51.10;32.60;;;;;;;18.35;87.61;99649.00;10393943;28;20263;-75
2021/07/24 21:19:42;;;;;;;56.15;33.42;;;;;;;18.34;87.51;99643.72;10392220;28;20294;-76
2021/07/24 21:24:45;;;;;;;55.53;32.83;;;;;;;18.18;86.81;99643.97;10393668;28;20237;-76
2021/07/24 21:29:48;;;;;;;55.60;32.42;;;;;;;17.97;86.99;99658.34;10393037;28;20256;-76
2021/07/24 21:34:52;;;;;;;58.17;34.55;;;;;;;17.99;87.17;99651.72;10390884;28;20241;-76
2021/07/24 21:40:08;;;;;;;55.08;32.28;;;;;;;17.95;87.12;99647.66;10391700;28;20258;-76
2021/07/24 21:45:12;;;;;;;60.92;36.67;;;;;;;18.07;87.30;99653.47;10390829;28;20225;-75
2021/07/24 21:50:16;;;;;;;63.15;36.50;;;;;;;18.07;87.13;99650.75;10392206;28;20615;-75
2021/07/24 21:55:20;;;;;;;64.43;39.50;;;;;;;17.97;86.78;99647.47;10390516;28;20848;-76
2021/07/24 22:00:25;;;;;;;62.40;36.65;;;;;;;17.86;86.98;99657.78;10391652;28;20233;-76
2021/07/24 22:05:29;;;;;;;71.68;40.22;;;;;;;17.73;86.80;99652.19;10390689;28;20675;-76
2021/07/24 22:10:32;;;;;;;77.70;41.92;;;;;;;17.52;86.71;99658.34;10391207;28;20617;-76
2021/07/24 22:15:37;;;;;;;84.13;44.63;;;;;;;17.55;86.68;99666.16;10391015;28;20237;-76
2021/07/24 22:20:43;;;;;;;82.47;44.03;;;;;;;17.63;86.80;99654.34;10390122;28;20325;-76
2021/07/24 22:25:46;;;;;;;94.20;47.30;;;;;;;17.59;86.05;99656.59;10390502;28;20237;-75
2021/07/24 22:30:49;;;;;;;99.70;49.92;;;;;;;17.60;85.71;99657.44;10389504;28;20237;-76
2021/07/24 22:35:53;;;;;;;92.80;49.33;;;;;;;17.53;85.87;99646.50;10393646;28;20271;-75
2021/07/24 22:40:56;;;;;;;91.50;47.50;;;;;;;17.59;85.80;99655.75;10390453;28;20245;-75
2021/07/24 22:45:59;;;;;;;89.43;47.35;;;;;;;17.43;85.61;99660.34;10389115;28;20241;-76
2021/07/24 22:51:05;;;;;;;82.50;43.75;;;;;;;17.34;85.37;99658.75;10390428;28;20643;-76
2021/07/24 22:56:09;;;;;;;81.03;42.33;;;;;;;17.33;85.44;99639.91;10389821;28;20233;-76
2021/07/24 23:01:11;;;;;;;82.88;43.60;;;;;;;17.29;85.21;99641.34;10389602;28;20253;-75
2021/07/24 23:06:16;;;;;;;76.35;41.15;;;;;;;17.21;85.00;99634.13;10387973;28;20229;-76
2021/07/24 23:11:23;;;;;;;73.70;38.63;;;;;;;17.22;84.76;99654.78;10388140;28;20240;-76
2021/07/24 23:16:26;;;;;;;75.38;41.58;;;;;;;17.13;85.09;99647.75;10388300;28;20891;-76